sensor_id;sensor_type;location;lat;lon;timestamp;pressure;altitude;pressure_sealevel;temperature;humidity
75936;BME280;64614;32.062;34.834;2022-12-24T00:00:21;100885.75;;;22.80;49.77
75936;BME280;64614;32.062;34.834;2022-12-24T00:02:49;100887.09;;;22.83;49.91
75936;BME280;64614;32.062;34.834;2022-12-24T00:05:15;100885.16;;;22.83;50.03
75936;BME280;64614;32.062;34.834;2022-12-24T00:07:40;100885.47;;;22.82;49.47
75936;BME280;64614;32.062;34.834;2022-12-24T00:10:07;100882.72;;;22.82;49.47
75936;BME280;64614;32.062;34.834;2022-12-24T00:12:33;100876.44;;;22.81;49.76
75936;BME280;64614;32.062;34.834;2022-12-24T00:14:59;100884.34;;;22.83;49.94
75936;BME280;64614;32.062;34.834;2022-12-24T00:17:25;100880.28;;;22.80;49.61
75936;BME280;64614;32.062;34.834;2022-12-24T00:19:50;100889.00;;;22.82;50.07
75936;BME280;64614;32.062;34.834;2022-12-24T00:22:16;100878.16;;;22.77;50.06
75936;BME280;64614;32.062;34.834;2022-12-24T00:24:41;100892.84;;;22.81;49.60
75936;BME280;64614;32.062;34.834;2022-12-24T00:27:08;100887.38;;;22.81;50.04
75936;BME280;64614;32.062;34.834;2022-12-24T00:29:33;100897.81;;;22.79;49.79
75936;BME280;64614;32.062;34.834;2022-12-24T00:31:59;100894.28;;;22.79;49.82
75936;BME280;64614;32.062;34.834;2022-12-24T00:34:25;100890.75;;;22.78;49.82
75936;BME280;64614;32.062;34.834;2022-12-24T00:36:51;100892.66;;;22.78;49.66
75936;BME280;64614;32.062;34.834;2022-12-24T00:39:17;100886.38;;;22.77;50.17
75936;BME280;64614;32.062;34.834;2022-12-24T00:41:42;100886.38;;;22.77;50.07
75936;BME280;64614;32.062;34.834;2022-12-24T00:44:09;100888.81;;;22.79;49.99
75936;BME280;64614;32.062;34.834;2022-12-24T00:46:36;100888.63;;;22.75;49.71
75936;BME280;64614;32.062;34.834;2022-12-24T00:49:04;100889.41;;;22.76;50.43
75936;BME280;64614;32.062;34.834;2022-12-24T00:51:31;100889.41;;;22.76;50.26
75936;BME280;64614;32.062;34.834;2022-12-24T00:53:57;100885.06;;;22.75;50.13
75936;BME280;64614;32.062;34.834;2022-12-24T00:56:22;100881.50;;;22.74;50.29
75936;BME280;64614;32.062;34.834;2022-12-24T00:58:48;100882.13;;;22.71;50.08
75936;BME280;64614;32.062;34.834;2022-12-24T01:01:14;100882.44;;;22.69;50.06
75936;BME280;64614;32.062;34.834;2022-12-24T01:03:40;100877.97;;;22.74;49.82
75936;BME280;64614;32.062;34.834;2022-12-24T01:06:14;100875.03;;;22.70;49.89
75936;BME280;64614;32.062;34.834;2022-12-24T01:08:41;100886.81;;;22.71;50.22
75936;BME280;64614;32.062;34.834;2022-12-24T01:11:08;100879.38;;;22.71;50.28
75936;BME280;64614;32.062;34.834;2022-12-24T01:13:35;100879.69;;;22.69;50.33
75936;BME280;64614;32.062;34.834;2022-12-24T01:16:01;100882.13;;;22.71;49.76
75936;BME280;64614;32.062;34.834;2022-12-24T01:18:27;100878.91;;;22.69;49.83
75936;BME280;64614;32.062;34.834;2022-12-24T01:21:00;100877.56;;;22.66;49.91
75936;BME280;64614;32.062;34.834;2022-12-24T01:23:27;100881.63;;;22.69;49.68
75936;BME280;64614;32.062;34.834;2022-12-24T01:25:54;100876.16;;;22.69;49.89
75936;BME280;64614;32.062;34.834;2022-12-24T01:28:23;100876.44;;;22.67;49.75
75936;BME280;64614;32.062;34.834;2022-12-24T01:30:49;100867.44;;;22.67;50.01
75936;BME280;64614;32.062;34.834;2022-12-24T01:33:15;100869.66;;;22.65;50.37
75936;BME280;64614;32.062;34.834;2022-12-24T01:35:41;100872.72;;;22.63;50.00
75936;BME280;64614;32.062;34.834;2022-12-24T01:38:08;100873.22;;;22.65;50.10
75936;BME280;64614;32.062;34.834;2022-12-24T01:40:40;100871.28;;;22.66;50.30
75936;BME280;64614;32.062;34.834;2022-12-24T01:43:25;100863.06;;;22.66;50.13
75936;BME280;64614;32.062;34.834;2022-12-24T01:46:24;100876.44;;;22.67;50.53
75936;BME280;64614;32.062;34.834;2022-12-24T01:48:55;100876.75;;;22.66;50.32
75936;BME280;64614;32.062;34.834;2022-12-24T01:54:12;100869.66;;;22.65;50.78
75936;BME280;64614;32.062;34.834;2022-12-24T01:56:45;100861.78;;;22.63;50.15
75936;BME280;64614;32.062;34.834;2022-12-24T01:59:16;100862.06;;;22.62;50.46
75936;BME280;64614;32.062;34.834;2022-12-24T02:01:43;100865.31;;;22.64;50.27
75936;BME280;64614;32.062;34.834;2022-12-24T02:04:26;100865.63;;;22.62;50.39
75936;BME280;64614;32.062;34.834;2022-12-24T02:06:55;100862.56;;;22.64;50.76
75936;BME280;64614;32.062;34.834;2022-12-24T02:09:20;100861.78;;;22.63;50.64
75936;BME280;64614;32.062;34.834;2022-12-24T02:11:46;100868.03;;;22.64;50.34
75936;BME280;64614;32.062;34.834;2022-12-24T02:14:13;100867.25;;;22.63;50.58
75936;BME280;64614;32.062;34.834;2022-12-24T02:22:22;100855.00;;;22.61;50.55
75936;BME280;64614;32.062;34.834;2022-12-24T02:27:59;100858.22;;;22.63;50.56
75936;BME280;64614;32.062;34.834;2022-12-24T02:31:02;100861.25;;;22.61;50.93
75936;BME280;64614;32.062;34.834;2022-12-24T02:33:34;100860.47;;;22.61;50.47
75936;BME280;64614;32.062;34.834;2022-12-24T02:36:15;100862.88;;;22.62;50.66
75936;BME280;64614;32.062;34.834;2022-12-24T02:38:49;100853.38;;;22.60;50.92
75936;BME280;64614;32.062;34.834;2022-12-24T02:41:22;100861.56;;;22.60;50.47
75936;BME280;64614;32.062;34.834;2022-12-24T02:46:29;100857.22;;;22.59;50.98
75936;BME280;64614;32.062;34.834;2022-12-24T02:48:58;100861.88;;;22.58;51.04
75936;BME280;64614;32.062;34.834;2022-12-24T02:51:24;100865.94;;;22.61;50.60
75936;BME280;64614;32.062;34.834;2022-12-24T02:53:50;100858.34;;;22.58;51.20
75936;BME280;64614;32.062;34.834;2022-12-24T02:59:15;100865.44;;;22.59;51.05
75936;BME280;64614;32.062;34.834;2022-12-24T03:13:17;100882.78;;;22.54;51.34
75936;BME280;64614;32.062;34.834;2022-12-24T03:15:45;100879.72;;;22.56;51.45
75936;BME280;64614;32.062;34.834;2022-12-24T03:18:14;100891.25;;;22.52;51.31
75936;BME280;64614;32.062;34.834;2022-12-24T03:20:49;100890.16;;;22.53;51.51
75936;BME280;64614;32.062;34.834;2022-12-24T03:23:18;100891.78;;;22.54;51.72
75936;BME280;64614;32.062;34.834;2022-12-24T03:25:45;100894.50;;;22.54;51.50
75936;BME280;64614;32.062;34.834;2022-12-24T03:28:13;100899.59;;;22.47;51.69
75936;BME280;64614;32.062;34.834;2022-12-24T03:30:41;100899.41;;;22.44;51.84
75936;BME280;64614;32.062;34.834;2022-12-24T03:33:07;100906.50;;;22.45;51.86
75936;BME280;64614;32.062;34.834;2022-12-24T03:35:33;100903.63;;;22.50;51.75
75936;BME280;64614;32.062;34.834;2022-12-24T03:37:59;100898.16;;;22.50;52.38
75936;BME280;64614;32.062;34.834;2022-12-24T03:40:24;100903.16;;;22.48;52.16
75936;BME280;64614;32.062;34.834;2022-12-24T03:42:50;100909.13;;;22.50;52.34
75936;BME280;64614;32.062;34.834;2022-12-24T03:45:16;100903.63;;;22.50;51.96
75936;BME280;64614;32.062;34.834;2022-12-24T03:47:41;100919.88;;;22.46;51.90
75936;BME280;64614;32.062;34.834;2022-12-24T03:50:07;100919.34;;;22.44;51.84
75936;BME280;64614;32.062;34.834;2022-12-24T03:52:33;100912.75;;;22.45;52.15
75936;BME280;64614;32.062;34.834;2022-12-24T03:54:58;100916.00;;;22.47;52.27
75936;BME280;64614;32.062;34.834;2022-12-24T03:57:24;100921.69;;;22.51;52.66
75936;BME280;64614;32.062;34.834;2022-12-24T03:59:50;100925.72;;;22.53;52.39
75936;BME280;64614;32.062;34.834;2022-12-24T04:02:15;100923.13;;;22.48;52.70
75936;BME280;64614;32.062;34.834;2022-12-24T04:04:41;100919.97;;;22.41;53.20
75936;BME280;64614;32.062;34.834;2022-12-24T04:07:06;100919.88;;;22.46;52.13
75936;BME280;64614;32.062;34.834;2022-12-24T04:09:32;100917.81;;;22.38;51.20
75936;BME280;64614;32.062;34.834;2022-12-24T04:11:58;100924.19;;;22.33;50.86
75936;BME280;64614;32.062;34.834;2022-12-24T04:14:24;100919.81;;;22.32;50.58
75936;BME280;64614;32.062;34.834;2022-12-24T04:16:49;100912.72;;;22.31;50.68
75936;BME280;64614;32.062;34.834;2022-12-24T04:19:15;100927.03;;;22.28;50.26
75936;BME280;64614;32.062;34.834;2022-12-24T04:21:41;100921.66;;;22.23;50.27
75936;BME280;64614;32.062;34.834;2022-12-24T04:24:06;100928.03;;;22.32;50.88
75936;BME280;64614;32.062;34.834;2022-12-24T04:26:32;100939.75;;;19.24;55.59
75936;BME280;64614;32.062;34.834;2022-12-24T04:28:58;100938.50;;;18.90;57.40
75936;BME280;64614;32.062;34.834;2022-12-24T04:31:23;100952.88;;;17.89;60.44
75936;BME280;64614;32.062;34.834;2022-12-24T04:33:50;100959.41;;;17.78;60.59
75936;BME280;64614;32.062;34.834;2022-12-24T04:36:18;100959.09;;;17.38;61.72
75936;BME280;64614;32.062;34.834;2022-12-24T04:38:46;100962.66;;;17.69;60.56
75936;BME280;64614;32.062;34.834;2022-12-24T04:41:15;100973.53;;;17.85;60.38
75936;BME280;64614;32.062;34.834;2022-12-24T04:43:41;100975.63;;;17.26;62.05
75936;BME280;64614;32.062;34.834;2022-12-24T04:46:12;100971.81;;;17.27;62.43
75936;BME280;64614;32.062;34.834;2022-12-24T04:48:44;100966.06;;;17.08;62.89
75936;BME280;64614;32.062;34.834;2022-12-24T04:51:11;100966.56;;;17.00;63.58
75936;BME280;64614;32.062;34.834;2022-12-24T04:53:37;100965.84;;;16.67;64.19
75936;BME280;64614;32.062;34.834;2022-12-24T04:56:06;100974.94;;;16.93;63.73
75936;BME280;64614;32.062;34.834;2022-12-24T04:58:33;100977.84;;;16.81;64.39
75936;BME280;64614;32.062;34.834;2022-12-24T05:01:04;100975.72;;;18.24;60.50
75936;BME280;64614;32.062;34.834;2022-12-24T05:03:30;100976.94;;;18.78;58.60
75936;BME280;64614;32.062;34.834;2022-12-24T05:06:05;100967.91;;;19.04;58.87
75936;BME280;64614;32.062;34.834;2022-12-24T05:08:32;100969.09;;;19.32;56.97
75936;BME280;64614;32.062;34.834;2022-12-24T05:10:59;100965.53;;;18.66;58.66
75936;BME280;64614;32.062;34.834;2022-12-24T05:13:27;100980.59;;;19.24;57.42
75936;BME280;64614;32.062;34.834;2022-12-24T05:15:55;100985.69;;;19.76;55.53
75936;BME280;64614;32.062;34.834;2022-12-24T05:18:21;100985.97;;;20.14;53.29
75936;BME280;64614;32.062;34.834;2022-12-24T05:20:48;100979.91;;;20.17;55.19
75936;BME280;64614;32.062;34.834;2022-12-24T05:23:19;100997.34;;;20.21;55.52
75936;BME280;64614;32.062;34.834;2022-12-24T05:26:04;101004.91;;;20.29;55.24
75936;BME280;64614;32.062;34.834;2022-12-24T05:28:51;100997.09;;;20.47;54.65
75936;BME280;64614;32.062;34.834;2022-12-24T05:31:17;100995.28;;;20.61;54.55
75936;BME280;64614;32.062;34.834;2022-12-24T05:33:43;100996.28;;;20.71;54.27
75936;BME280;64614;32.062;34.834;2022-12-24T05:36:09;101005.84;;;20.73;55.17
75936;BME280;64614;32.062;34.834;2022-12-24T05:38:35;101000.72;;;20.66;54.60
75936;BME280;64614;32.062;34.834;2022-12-24T05:41:01;101006.06;;;20.77;54.60
75936;BME280;64614;32.062;34.834;2022-12-24T05:43:26;101003.81;;;20.84;54.44
75936;BME280;64614;32.062;34.834;2022-12-24T05:45:57;101013.56;;;20.90;54.55
75936;BME280;64614;32.062;34.834;2022-12-24T05:48:23;101013.25;;;20.92;55.19
75936;BME280;64614;32.062;34.834;2022-12-24T05:50:49;101014.09;;;20.92;55.19
75936;BME280;64614;32.062;34.834;2022-12-24T05:53:14;101004.84;;;20.88;54.28
75936;BME280;64614;32.062;34.834;2022-12-24T05:55:40;101013.03;;;20.88;54.41
75936;BME280;64614;32.062;34.834;2022-12-24T05:58:06;101008.09;;;20.90;54.35
75936;BME280;64614;32.062;34.834;2022-12-24T06:00:31;101011.13;;;20.89;54.21
75936;BME280;64614;32.062;34.834;2022-12-24T06:02:57;101016.81;;;20.92;53.96
75936;BME280;64614;32.062;34.834;2022-12-24T06:05:24;101026.03;;;20.96;54.32
75936;BME280;64614;32.062;34.834;2022-12-24T06:07:49;101017.72;;;21.07;54.08
75936;BME280;64614;32.062;34.834;2022-12-24T06:10:15;101018.03;;;21.05;53.77
75936;BME280;64614;32.062;34.834;2022-12-24T06:12:41;101027.56;;;21.08;53.58
75936;BME280;64614;32.062;34.834;2022-12-24T06:15:07;101024.47;;;21.15;53.18
75936;BME280;64614;32.062;34.834;2022-12-24T06:17:33;101017.53;;;21.22;52.89
75936;BME280;64614;32.062;34.834;2022-12-24T06:19:58;101020.78;;;21.24;52.48
75936;BME280;64614;32.062;34.834;2022-12-24T06:28:29;101016.38;;;21.48;52.56
75936;BME280;64614;32.062;34.834;2022-12-24T06:31:20;101018.59;;;21.45;51.91
75936;BME280;64614;32.062;34.834;2022-12-24T06:34:25;100995.41;;;21.24;52.50
75936;BME280;64614;32.062;34.834;2022-12-24T06:36:54;101028.50;;;21.41;52.56
75936;BME280;64614;32.062;34.834;2022-12-24T06:39:20;101025.00;;;21.36;52.74
75936;BME280;64614;32.062;34.834;2022-12-24T06:41:48;101032.19;;;21.51;52.46
75936;BME280;64614;32.062;34.834;2022-12-24T06:44:15;101041.31;;;21.41;52.25
75936;BME280;64614;32.062;34.834;2022-12-24T06:46:41;101038.50;;;21.27;52.31
75936;BME280;64614;32.062;34.834;2022-12-24T06:49:07;101037.09;;;21.29;52.33
75936;BME280;64614;32.062;34.834;2022-12-24T06:51:33;101044.13;;;21.36;51.87
75936;BME280;64614;32.062;34.834;2022-12-24T06:53:59;101043.09;;;21.32;52.09
75936;BME280;64614;32.062;34.834;2022-12-24T06:56:24;101045.38;;;21.24;51.96
75936;BME280;64614;32.062;34.834;2022-12-24T06:58:50;101031.91;;;21.09;52.14
75936;BME280;64614;32.062;34.834;2022-12-24T07:01:17;101040.63;;;21.11;52.28
75936;BME280;64614;32.062;34.834;2022-12-24T07:03:50;101037.56;;;20.93;53.16
75936;BME280;64614;32.062;34.834;2022-12-24T07:06:28;101057.34;;;21.28;52.52
75936;BME280;64614;32.062;34.834;2022-12-24T07:08:54;101045.69;;;21.42;52.50
75936;BME280;64614;32.062;34.834;2022-12-24T07:11:20;101024.47;;;21.53;52.38
75936;BME280;64614;32.062;34.834;2022-12-24T07:13:46;101046.53;;;21.62;52.24
75936;BME280;64614;32.062;34.834;2022-12-24T07:16:13;101052.22;;;21.65;52.42
75936;BME280;64614;32.062;34.834;2022-12-24T07:18:39;101050.28;;;21.66;52.25
75936;BME280;64614;32.062;34.834;2022-12-24T07:21:05;101050.28;;;21.66;52.19
75936;BME280;64614;32.062;34.834;2022-12-24T07:23:32;101068.94;;;21.64;52.09
75936;BME280;64614;32.062;34.834;2022-12-24T07:26:06;101053.63;;;21.63;52.08
75936;BME280;64614;32.062;34.834;2022-12-24T07:28:32;101063.69;;;21.67;51.97
75936;BME280;64614;32.062;34.834;2022-12-24T07:30:57;101056.38;;;21.63;52.01
75936;BME280;64614;32.062;34.834;2022-12-24T07:33:25;101066.47;;;21.62;52.03
75936;BME280;64614;32.062;34.834;2022-12-24T07:36:06;101071.41;;;21.60;52.32
75936;BME280;64614;32.062;34.834;2022-12-24T07:38:33;101062.94;;;21.62;52.42
75936;BME280;64614;32.062;34.834;2022-12-24T07:40:59;101058.00;;;21.64;52.12
75936;BME280;64614;32.062;34.834;2022-12-24T07:43:25;101057.47;;;21.62;52.17
75936;BME280;64614;32.062;34.834;2022-12-24T07:45:56;101057.47;;;21.62;52.11
75936;BME280;64614;32.062;34.834;2022-12-24T07:48:22;101057.47;;;21.62;51.71
75936;BME280;64614;32.062;34.834;2022-12-24T07:50:49;101053.03;;;21.66;52.15
75936;BME280;64614;32.062;34.834;2022-12-24T07:53:15;101059.25;;;21.71;52.06
75936;BME280;64614;32.062;34.834;2022-12-24T07:55:40;101052.97;;;21.71;52.24
75936;BME280;64614;32.062;34.834;2022-12-24T07:58:06;101036.03;;;21.69;51.79
75936;BME280;64614;32.062;34.834;2022-12-24T08:00:32;101039.75;;;21.78;51.54
75936;BME280;64614;32.062;34.834;2022-12-24T08:02:57;101036.13;;;21.83;51.29
75936;BME280;64614;32.062;34.834;2022-12-24T08:05:25;101032.22;;;22.03;51.08
75936;BME280;64614;32.062;34.834;2022-12-24T08:07:54;101026.94;;;22.26;50.56
75936;BME280;64614;32.062;34.834;2022-12-24T08:10:20;101019.16;;;22.33;50.01
75936;BME280;64614;32.062;34.834;2022-12-24T08:12:45;101021.13;;;22.46;49.87
75936;BME280;64614;32.062;34.834;2022-12-24T08:15:12;101014.94;;;22.54;49.75
75936;BME280;64614;32.062;34.834;2022-12-24T08:17:38;101016.19;;;22.62;49.63
75936;BME280;64614;32.062;34.834;2022-12-24T08:20:04;101016.38;;;22.66;49.48
75936;BME280;64614;32.062;34.834;2022-12-24T08:22:30;101019.63;;;22.68;49.08
75936;BME280;64614;32.062;34.834;2022-12-24T08:27:36;101029.16;;;22.57;49.83
75936;BME280;64614;32.062;34.834;2022-12-24T08:30:03;101018.59;;;22.50;50.01
75936;BME280;64614;32.062;34.834;2022-12-24T08:32:29;101023.84;;;22.46;49.78
75936;BME280;64614;32.062;34.834;2022-12-24T08:34:54;101022.94;;;22.51;49.58
75936;BME280;64614;32.062;34.834;2022-12-24T08:37:20;101020.31;;;22.46;50.18
75936;BME280;64614;32.062;34.834;2022-12-24T08:39:45;101017.31;;;22.28;50.51
75936;BME280;64614;32.062;34.834;2022-12-24T08:42:11;101015.91;;;22.31;50.22
75936;BME280;64614;32.062;34.834;2022-12-24T08:44:37;101017.91;;;22.25;50.58
75936;BME280;64614;32.062;34.834;2022-12-24T08:47:02;101025.81;;;22.27;50.31
75936;BME280;64614;32.062;34.834;2022-12-24T08:49:29;101029.69;;;22.26;50.54
75936;BME280;64614;32.062;34.834;2022-12-24T08:51:54;101034.44;;;22.20;50.29
75936;BME280;64614;32.062;34.834;2022-12-24T08:54:20;101028.06;;;22.25;50.50
75936;BME280;64614;32.062;34.834;2022-12-24T08:56:48;101033.53;;;22.25;50.29
75936;BME280;64614;32.062;34.834;2022-12-24T08:59:13;101037.38;;;22.23;50.53
75936;BME280;64614;32.062;34.834;2022-12-24T09:01:39;101036.94;;;22.16;50.72
75936;BME280;64614;32.062;34.834;2022-12-24T09:04:05;101028.44;;;22.18;50.59
75936;BME280;64614;32.062;34.834;2022-12-24T09:06:31;101038.06;;;22.15;50.63
75936;BME280;64614;32.062;34.834;2022-12-24T09:08:57;101038.97;;;22.11;50.77
75936;BME280;64614;32.062;34.834;2022-12-24T09:11:23;101031.03;;;22.09;50.83
75936;BME280;64614;32.062;34.834;2022-12-24T09:13:49;101024.56;;;22.05;50.74
75936;BME280;64614;32.062;34.834;2022-12-24T09:16:15;101024.56;;;22.05;50.89
75936;BME280;64614;32.062;34.834;2022-12-24T09:18:41;101022.91;;;22.04;50.66
75936;BME280;64614;32.062;34.834;2022-12-24T09:21:12;101030.31;;;22.03;50.42
75936;BME280;64614;32.062;34.834;2022-12-24T09:23:43;101026.75;;;22.03;50.53
75936;BME280;64614;32.062;34.834;2022-12-24T09:26:18;101016.13;;;22.01;50.63
75936;BME280;64614;32.062;34.834;2022-12-24T09:28:44;101018.88;;;22.01;50.46
75936;BME280;64614;32.062;34.834;2022-12-24T09:31:11;101005.25;;;21.96;50.91
75936;BME280;64614;32.062;34.834;2022-12-24T09:33:39;101019.75;;;21.97;50.91
75936;BME280;64614;32.062;34.834;2022-12-24T09:36:05;100998.63;;;22.02;50.69
75936;BME280;64614;32.062;34.834;2022-12-24T09:38:32;101001.03;;;22.04;50.60
75936;BME280;64614;32.062;34.834;2022-12-24T09:40:59;100996.78;;;21.98;50.50
75936;BME280;64614;32.062;34.834;2022-12-24T09:43:28;100986.06;;;22.01;50.37
75936;BME280;64614;32.062;34.834;2022-12-24T09:46:16;100977.84;;;22.01;50.61
75936;BME280;64614;32.062;34.834;2022-12-24T09:48:48;100982.69;;;22.04;50.45
75936;BME280;64614;32.062;34.834;2022-12-24T09:56:39;100990.41;;;22.02;50.49
75936;BME280;64614;32.062;34.834;2022-12-24T09:59:08;100993.94;;;22.03;50.45
75936;BME280;64614;32.062;34.834;2022-12-24T10:01:34;100994.53;;;22.00;50.46
75936;BME280;64614;32.062;34.834;2022-12-24T10:04:11;101000.09;;;21.95;50.37
75936;BME280;64614;32.062;34.834;2022-12-24T10:06:54;100996.03;;;21.92;50.47
75936;BME280;64614;32.062;34.834;2022-12-24T10:09:26;101009.50;;;21.88;50.45
75936;BME280;64614;32.062;34.834;2022-12-24T10:12:10;101012.81;;;21.85;50.42
75936;BME280;64614;32.062;34.834;2022-12-24T10:22:39;101001.53;;;21.73;50.65
75936;BME280;64614;32.062;34.834;2022-12-24T10:25:46;101021.13;;;21.80;50.68
75936;BME280;64614;32.062;34.834;2022-12-24T10:28:18;101022.81;;;21.76;50.71
75936;BME280;64614;32.062;34.834;2022-12-24T10:30:51;101021.28;;;21.70;51.39
75936;BME280;64614;32.062;34.834;2022-12-24T10:33:32;101019.22;;;21.62;51.89
75936;BME280;64614;32.062;34.834;2022-12-24T10:35:59;101020.34;;;21.55;51.85
75936;BME280;64614;32.062;34.834;2022-12-24T10:38:25;101022.84;;;21.52;52.35
75936;BME280;64614;32.062;34.834;2022-12-24T10:40:53;101018.28;;;21.47;52.62
75936;BME280;64614;32.062;34.834;2022-12-24T10:43:22;101010.69;;;21.44;52.95
75936;BME280;64614;32.062;34.834;2022-12-24T10:45:51;101012.69;;;21.38;53.46
75936;BME280;64614;32.062;34.834;2022-12-24T10:48:31;101002.84;;;21.37;53.82
75936;BME280;64614;32.062;34.834;2022-12-24T10:51:10;101011.56;;;21.39;54.29
75936;BME280;64614;32.062;34.834;2022-12-24T10:53:42;101002.53;;;21.39;54.63
75936;BME280;64614;32.062;34.834;2022-12-24T10:56:12;101004.19;;;21.40;54.43
75936;BME280;64614;32.062;34.834;2022-12-24T10:58:50;101005.59;;;21.37;54.52
75936;BME280;64614;32.062;34.834;2022-12-24T11:01:16;101001.75;;;21.38;54.39
75936;BME280;64614;32.062;34.834;2022-12-24T11:03:42;101000.66;;;21.39;54.34
75936;BME280;64614;32.062;34.834;2022-12-24T11:06:15;100998.78;;;21.35;53.76
75936;BME280;64614;32.062;34.834;2022-12-24T11:08:46;100988.22;;;21.28;53.15
75936;BME280;64614;32.062;34.834;2022-12-24T11:11:17;100995.91;;;21.26;52.90
75936;BME280;64614;32.062;34.834;2022-12-24T11:18:56;101010.75;;;21.39;53.96
75936;BME280;64614;32.062;34.834;2022-12-24T11:21:31;101020.28;;;21.41;54.25
75936;BME280;64614;32.062;34.834;2022-12-24T11:26:40;101018.06;;;21.43;55.72
75936;BME280;64614;32.062;34.834;2022-12-24T11:29:32;101039.41;;;21.41;56.57
75936;BME280;64614;32.062;34.834;2022-12-24T11:32:18;101032.25;;;21.45;55.52
75936;BME280;64614;32.062;34.834;2022-12-24T11:34:44;101034.09;;;21.50;55.57
75936;BME280;64614;32.062;34.834;2022-12-24T11:37:21;101019.16;;;21.42;55.46
75936;BME280;64614;32.062;34.834;2022-12-24T11:39:52;101011.84;;;21.38;55.38
75936;BME280;64614;32.062;34.834;2022-12-24T11:42:26;101004.78;;;21.56;54.12
75936;BME280;64614;32.062;34.834;2022-12-24T11:44:55;101011.00;;;21.62;55.56
75936;BME280;64614;32.062;34.834;2022-12-24T11:47:37;101008.31;;;21.56;55.11
75936;BME280;64614;32.062;34.834;2022-12-24T11:50:24;101008.28;;;21.62;55.22
75936;BME280;64614;32.062;34.834;2022-12-24T11:55:47;101029.53;;;21.65;54.58
75936;BME280;64614;32.062;34.834;2022-12-24T12:06:56;101037.72;;;21.65;54.40
75936;BME280;64614;32.062;34.834;2022-12-24T12:09:27;101042.25;;;21.74;54.21
75936;BME280;64614;32.062;34.834;2022-12-24T12:12:13;101035.16;;;21.73;54.53
75936;BME280;64614;32.062;34.834;2022-12-24T12:14:52;101029.84;;;21.63;54.80
75936;BME280;64614;32.062;34.834;2022-12-24T12:20:06;101031.78;;;21.57;54.88
75936;BME280;64614;32.062;34.834;2022-12-24T12:23:15;101034.00;;;21.55;54.79
75936;BME280;64614;32.062;34.834;2022-12-24T12:26:34;101051.53;;;21.54;54.74
75936;BME280;64614;32.062;34.834;2022-12-24T12:31:54;101040.44;;;21.45;54.77
75936;BME280;64614;32.062;34.834;2022-12-24T12:34:57;101045.69;;;21.42;54.97
75936;BME280;64614;32.062;34.834;2022-12-24T12:37:53;101045.16;;;21.40;54.46
75936;BME280;64614;32.062;34.834;2022-12-24T12:40:31;101045.75;;;21.37;54.73
75936;BME280;64614;32.062;34.834;2022-12-24T12:46:06;101061.03;;;21.38;54.51
75936;BME280;64614;32.062;34.834;2022-12-24T12:49:08;101053.97;;;21.37;54.78
75936;BME280;64614;32.062;34.834;2022-12-24T12:57:33;101045.81;;;21.32;54.36
75936;BME280;64614;32.062;34.834;2022-12-24T13:00:06;101054.00;;;21.32;53.88
75936;BME280;64614;32.062;34.834;2022-12-24T13:11:05;101063.03;;;21.32;54.24
75936;BME280;64614;32.062;34.834;2022-12-24T13:13:51;101072.56;;;21.35;54.31
75936;BME280;64614;32.062;34.834;2022-12-24T13:16:44;101069.31;;;21.33;54.43
75936;BME280;64614;32.062;34.834;2022-12-24T13:20:17;101085.69;;;21.33;54.66
75936;BME280;64614;32.062;34.834;2022-12-24T13:22:17;101070.50;;;21.45;54.31
75936;BME280;64614;32.062;34.834;2022-12-24T13:24:51;101071.38;;;21.41;54.77
75936;BME280;64614;32.062;34.834;2022-12-24T13:27:31;101085.03;;;21.41;54.67
75936;BME280;64614;32.062;34.834;2022-12-24T13:30:52;101092.72;;;21.39;54.79
75936;BME280;64614;32.062;34.834;2022-12-24T13:32:53;101101.13;;;21.42;54.98
75936;BME280;64614;32.062;34.834;2022-12-24T13:37:46;101107.44;;;21.43;54.79
75936;BME280;64614;32.062;34.834;2022-12-24T13:47:53;101108.00;;;21.40;55.19
75936;BME280;64614;32.062;34.834;2022-12-24T13:50:39;101113.47;;;21.40;54.60
75936;BME280;64614;32.062;34.834;2022-12-24T13:53:17;101119.84;;;21.54;54.41
75936;BME280;64614;32.062;34.834;2022-12-24T13:58:28;101108.00;;;21.40;54.60
75936;BME280;64614;32.062;34.834;2022-12-24T14:01:02;101111.84;;;21.39;54.86
75936;BME280;64614;32.062;34.834;2022-12-24T14:03:41;101100.91;;;21.39;54.77
75936;BME280;64614;32.062;34.834;2022-12-24T14:06:11;101091.69;;;21.35;54.95
75936;BME280;64614;32.062;34.834;2022-12-24T14:08:46;101081.94;;;21.48;54.88
75936;BME280;64614;32.062;34.834;2022-12-24T14:11:18;101105.66;;;18.69;57.95
75936;BME280;64614;32.062;34.834;2022-12-24T14:16:21;101104.19;;;17.78;61.64
75936;BME280;64614;32.062;34.834;2022-12-24T14:19:24;101103.19;;;18.00;61.36
75936;BME280;64614;32.062;34.834;2022-12-24T14:24:58;101097.16;;;19.01;59.07
75936;BME280;64614;32.062;34.834;2022-12-24T14:30:18;101096.25;;;20.32;55.08
75936;BME280;64614;32.062;34.834;2022-12-24T14:32:44;101098.41;;;20.64;55.47
75936;BME280;64614;32.062;34.834;2022-12-24T14:38:10;101102.59;;;20.86;55.98
75936;BME280;64614;32.062;34.834;2022-12-24T14:40:52;101098.97;;;20.96;55.25
75936;BME280;64614;32.062;34.834;2022-12-24T14:46:26;101074.66;;;20.94;55.87
75936;BME280;64614;32.062;34.834;2022-12-24T14:52:05;101083.78;;;21.09;56.30
75936;BME280;64614;32.062;34.834;2022-12-24T14:54:39;101091.69;;;21.10;56.42
75936;BME280;64614;32.062;34.834;2022-12-24T15:05:03;101111.63;;;21.11;56.76
75936;BME280;64614;32.062;34.834;2022-12-24T15:07:31;101105.13;;;21.07;57.09